ADDS TAF Board (Experimental) INFO

IDs: Format: Expanded Condensed

Updated at: 0536 UTC 22 Dec 2014

KCVG - Cincinnati Intl, KY, US

Issued at 0534 UTC 22 Dec 2014
Time0452Z22/06Z22/07Z22/08Z22/09Z22/10Z22/11Z22/12Z22/13Z22/14Z22/15Z22/16Z22/17Z22/18Z
TypeOBSPRVLPRVLPRVLPRVLPRVLPRVLPRVLPRVLPRVLPRVLPRVLPRVLPRVL
VIS7>6>6>6>6>6>6>6>6>6>6>6>6>6
CIG----------454545454535353535
CoverSCTSCTSCTSCTSCTOVCOVCOVCOVCOVCBKNBKNBKNBKN
FltCat--VFRVFRVFRVFRVFRVFRVFRVFRVFRVFRVFRVFRVFR
WX----------VCSHVCSHVCSHVCSHVCSH--------
WDir100100100100100120120120120120120120120120
WSpd555555555510101010
WGst----------------------------
R09/27
XWnd-1-1-1-1-1-2-2-2-2-2-5-5-5-5
HWnd55555444449999
R18/36
XWnd55555444449999
HWnd11111333335555
Raw TAF
KCVG 220534Z 2206/2312 10005KT P6SM SCT250
  FM221000 12005KT P6SM VCSH SCT015 OVC045
  FM221500 12010KT P6SM FEW015 BKN035
  FM230400 13010KT P6SM -RA SCT012 BKN035
  FM230600 14010KT 3SM RA BR OVC008


Raw METAR
KCVG 220452Z 10005KT 7SM SCT250 M02/M06 A3010 RMK AO2 SLP199 T10171056 400331033

TAF Board Legend

Hazard VFR MVFR IFR LIFR
Visibility (sm) >5 3≤X≤5 1≤X<3 <1
Ceiling (100 ft) >30 10≤X≤30 5≤X<10 <5
Wind Speed (kt) <10 10≤X<20 20≤X<30 ≥30
Wind Gust (kt) <15 15≤X<25 25≤X<35 ≥35
Weather No Wx Reported VCTS,-TS,-FZRA TS,FZRA +TS,+FZRA


Page loaded:  05:36 UTC  |   09:36 PM Pacific  |   10:36 PM Mountain  |   11:36 PM Central  |   12:36 AM Eastern

 

ADVISORIES

FORECASTS

FORECASTS

OBSERVATIONS

USER TOOLS

ABOUT US